createdAt,value
2019-03-23T00:03:38.555Z,9.80
2019-03-23T00:08:42.783Z,9.70
2019-03-23T00:13:47.015Z,9.60
2019-03-23T00:18:51.746Z,9.50
2019-03-23T00:23:55.981Z,9.50
2019-03-23T00:29:00.230Z,9.30
2019-03-23T00:34:04.466Z,9.20
2019-03-23T00:39:09.000Z,9.00
2019-03-23T00:44:13.644Z,9.00
2019-03-23T00:49:17.900Z,9.10
2019-03-23T00:54:22.137Z,9.00
2019-03-23T00:59:26.691Z,8.80
2019-03-23T01:04:30.929Z,8.80
2019-03-23T01:09:35.165Z,8.90
2019-03-23T01:14:40.414Z,9.00
2019-03-23T01:19:44.716Z,9.00
2019-03-23T01:24:49.040Z,9.00
2019-03-23T01:29:53.850Z,9.00
2019-03-23T01:34:58.083Z,8.70
2019-03-23T01:40:02.296Z,8.60
2019-03-23T01:45:07.580Z,8.40
2019-03-23T01:50:12.242Z,8.30
2019-03-23T01:55:16.461Z,8.20
2019-03-23T02:00:20.958Z,8.10
2019-03-23T02:05:25.581Z,8.00
2019-03-23T02:10:29.801Z,7.90
2019-03-23T02:15:34.316Z,8.00
2019-03-23T02:20:38.536Z,7.90
2019-03-23T02:25:49.196Z,7.80
2019-03-23T02:30:53.409Z,7.90
2019-03-23T02:35:57.875Z,7.90
2019-03-23T02:41:02.110Z,7.90
2019-03-23T02:46:06.340Z,7.80
2019-03-23T02:51:10.890Z,7.70
2019-03-23T02:56:15.321Z,7.60
2019-03-23T03:01:19.540Z,7.60
2019-03-23T03:06:24.091Z,7.60
2019-03-23T03:11:28.335Z,7.70
2019-03-23T03:16:32.562Z,7.60
2019-03-23T03:21:36.794Z,7.40
2019-03-23T03:26:41.012Z,7.30
2019-03-23T03:31:45.226Z,7.20
2019-03-23T03:36:49.451Z,7.30
2019-03-23T03:41:54.074Z,7.30
2019-03-23T03:46:58.617Z,7.70
2019-03-23T03:52:02.832Z,7.80
2019-03-23T03:57:07.583Z,7.70
2019-03-23T04:02:11.797Z,7.30
2019-03-23T04:07:16.026Z,7.30
2019-03-23T04:12:20.601Z,7.60
2019-03-23T04:17:24.859Z,7.40
2019-03-23T04:22:29.587Z,7.60
2019-03-23T04:27:33.886Z,7.50
2019-03-23T04:32:38.079Z,7.50
2019-03-23T04:37:42.298Z,7.40
2019-03-23T04:42:46.524Z,7.10
2019-03-23T04:47:50.725Z,6.90
2019-03-23T04:53:14.172Z,6.90
2019-03-23T04:58:18.729Z,7.10
2019-03-23T05:03:23.433Z,7.20
2019-03-23T05:08:33.331Z,7.10
2019-03-23T05:13:33.785Z,7.00
2019-03-23T05:18:38.314Z,7.00
2019-03-23T05:23:42.840Z,7.00
2019-03-23T05:28:47.057Z,7.20
2019-03-23T05:33:51.281Z,7.40
2019-03-23T05:38:56.269Z,7.40
2019-03-23T05:44:00.712Z,7.50
2019-03-23T05:49:05.250Z,7.40
2019-03-23T05:54:09.449Z,7.60
2019-03-23T05:59:13.680Z,7.60
2019-03-23T06:04:18.147Z,7.90
2019-03-23T06:09:22.362Z,8.10
2019-03-23T06:14:26.939Z,8.20
2019-03-23T06:19:31.525Z,8.40
2019-03-23T06:24:35.790Z,8.60
2019-03-23T06:29:40.058Z,8.70
2019-03-23T06:34:44.262Z,8.80
2019-03-23T06:39:48.737Z,8.90
2019-03-23T06:44:53.019Z,9.10
2019-03-23T06:49:57.270Z,9.20
2019-03-23T06:55:01.497Z,9.30
2019-03-23T07:00:08.126Z,9.50
2019-03-23T07:05:13.184Z,9.80
2019-03-23T07:10:17.740Z,10.00
2019-03-23T07:15:21.960Z,10.40
2019-03-23T07:20:26.624Z,10.60
2019-03-23T07:25:30.874Z,10.90
2019-03-23T07:30:35.782Z,11.10
2019-03-23T07:35:39.967Z,11.40
2019-03-23T07:40:44.190Z,11.70
2019-03-23T07:45:48.406Z,12.00
2019-03-23T07:50:52.657Z,12.30
2019-03-23T07:55:56.928Z,12.50
2019-03-23T08:01:01.710Z,12.80
2019-03-23T08:06:05.972Z,13.20
2019-03-23T08:11:10.194Z,13.50
2019-03-23T08:16:14.417Z,15.50
2019-03-23T08:21:18.711Z,19.60
2019-03-23T08:26:22.983Z,21.80
2019-03-23T08:31:27.209Z,23.50
2019-03-23T08:36:31.422Z,25.10
2019-03-23T08:41:35.693Z,26.50
2019-03-23T08:46:40.267Z,28.70
2019-03-23T08:51:44.893Z,29.90
2019-03-23T08:56:49.203Z,32.50
2019-03-23T09:01:53.429Z,33.70
2019-03-23T09:06:57.645Z,35.50
2019-03-23T09:12:01.850Z,36.50
2019-03-23T09:17:06.142Z,37.50
2019-03-23T09:22:10.365Z,38.20
2019-03-23T09:27:15.197Z,39.40
2019-03-23T09:32:19.749Z,38.90
2019-03-23T09:37:24.237Z,38.70
2019-03-23T09:42:28.474Z,39.00
2019-03-23T09:47:32.699Z,39.70
2019-03-23T09:52:36.974Z,39.70
2019-03-23T09:57:41.225Z,40.50
2019-03-23T10:02:45.513Z,41.80
2019-03-23T10:07:49.718Z,41.90
2019-03-23T10:12:53.939Z,43.00
2019-03-23T10:17:58.554Z,45.00
2019-03-23T10:23:02.892Z,45.80
2019-03-23T10:28:07.405Z,43.70
2019-03-23T10:33:11.976Z,42.30
2019-03-23T10:38:17.002Z,41.80
2019-03-23T10:43:21.578Z,41.60
2019-03-23T10:48:25.781Z,40.30
2019-03-23T10:53:30.327Z,38.80
2019-03-23T10:58:34.629Z,38.30
2019-03-23T11:03:38.864Z,38.60
2019-03-23T11:08:43.076Z,37.80
2019-03-23T11:13:47.330Z,36.00
2019-03-23T11:18:51.858Z,35.30
2019-03-23T11:23:56.085Z,36.90
2019-03-23T11:29:00.440Z,37.00
2019-03-23T11:34:05.050Z,38.40
2019-03-23T11:39:09.570Z,40.40
2019-03-23T11:44:14.145Z,39.30
2019-03-23T11:49:18.759Z,39.00
2019-03-23T11:54:22.979Z,37.20
2019-03-23T11:59:27.263Z,36.90
2019-03-23T12:04:31.769Z,35.90
2019-03-23T12:09:36.304Z,35.70
2019-03-23T12:14:40.529Z,34.70
2019-03-23T12:19:44.813Z,36.10
2019-03-23T12:24:49.007Z,35.60
2019-03-23T12:29:53.229Z,35.50
2019-03-23T12:34:57.800Z,35.10
2019-03-23T12:40:02.410Z,35.40
2019-03-23T12:45:07.359Z,35.40
2019-03-23T12:50:11.906Z,36.60
2019-03-23T12:55:16.137Z,35.90
2019-03-23T13:00:20.518Z,36.30
2019-03-23T13:05:25.053Z,37.00
2019-03-23T13:10:29.305Z,35.70
2019-03-23T13:15:33.845Z,35.20
2019-03-23T13:20:38.113Z,34.60
2019-03-23T13:25:42.393Z,34.90
2019-03-23T13:30:46.669Z,35.80
2019-03-23T13:35:50.878Z,35.20
2019-03-23T13:40:55.112Z,35.20
2019-03-23T13:46:03.045Z,35.00
2019-03-23T13:51:07.394Z,34.00
2019-03-23T13:56:11.615Z,33.00
2019-03-23T14:01:16.101Z,32.00
2019-03-23T14:06:20.401Z,31.10
2019-03-23T14:11:24.657Z,31.50
2019-03-23T14:16:29.183Z,31.80
2019-03-23T14:21:33.409Z,32.10
2019-03-23T14:26:37.957Z,32.60
2019-03-23T14:31:42.265Z,31.80
2019-03-23T14:36:46.521Z,30.70
2019-03-23T14:41:51.208Z,29.20
2019-03-23T14:46:58.307Z,29.70
2019-03-23T14:52:02.585Z,29.40
2019-03-23T14:57:06.818Z,29.20
2019-03-23T15:02:11.105Z,29.10
2019-03-23T15:07:15.850Z,29.60
2019-03-23T15:12:21.361Z,30.00
2019-03-23T15:17:25.636Z,28.90
2019-03-23T15:22:29.885Z,28.70
2019-03-23T15:27:35.127Z,28.80
2019-03-23T15:32:39.657Z,28.10
2019-03-23T15:37:44.327Z,28.20
2019-03-23T15:42:48.614Z,27.70
2019-03-23T15:47:53.091Z,26.90
2019-03-23T15:52:57.641Z,26.90
2019-03-23T15:58:01.955Z,26.50
2019-03-23T16:03:06.527Z,26.40
2019-03-23T16:08:11.057Z,25.80
2019-03-23T16:13:15.311Z,25.20
2019-03-23T16:18:19.837Z,24.60
2019-03-23T16:23:24.070Z,24.10
2019-03-23T16:28:28.309Z,23.40
2019-03-23T16:33:32.573Z,22.90
2019-03-23T16:38:36.822Z,22.40
2019-03-23T16:43:42.348Z,21.90
2019-03-23T16:48:46.575Z,21.40
2019-03-23T16:53:51.113Z,21.00
2019-03-23T16:58:55.634Z,20.70
2019-03-23T17:04:00.005Z,20.40
2019-03-23T17:09:05.022Z,20.10
2019-03-23T17:14:09.243Z,19.60
2019-03-23T17:19:13.441Z,19.30
2019-03-23T17:24:17.774Z,19.00
2019-03-23T17:29:22.405Z,18.50
2019-03-23T17:34:26.630Z,18.20
2019-03-23T17:39:30.933Z,17.80
2019-03-23T17:44:35.280Z,17.50
2019-03-23T17:49:39.541Z,17.40
2019-03-23T17:54:43.835Z,17.20
2019-03-23T17:59:48.213Z,16.90
2019-03-23T18:04:52.465Z,16.50
2019-03-23T18:09:56.670Z,16.40
2019-03-23T18:15:01.459Z,16.10
2019-03-23T18:20:06.558Z,16.10
2019-03-23T18:25:12.445Z,15.90
2019-03-23T18:30:33.642Z,15.60
2019-03-23T18:35:38.016Z,15.40
2019-03-23T18:40:42.309Z,15.40
2019-03-23T18:45:46.615Z,15.10
2019-03-23T18:50:51.718Z,15.00
2019-03-23T18:55:55.974Z,14.80
2019-03-23T19:01:00.791Z,14.80
2019-03-23T19:06:05.119Z,14.70
2019-03-23T19:11:09.658Z,14.60
2019-03-23T19:16:14.010Z,14.60
2019-03-23T19:21:18.225Z,14.30
2019-03-23T19:26:23.054Z,14.20
2019-03-23T19:31:27.342Z,14.00
2019-03-23T19:36:31.598Z,13.80
2019-03-23T19:41:35.837Z,13.80
2019-03-23T19:46:40.080Z,13.80
2019-03-23T19:51:44.701Z,13.80
2019-03-23T19:56:53.894Z,13.60
2019-03-23T20:01:58.167Z,13.80
2019-03-23T20:07:02.391Z,13.60
2019-03-23T20:12:06.678Z,13.60
2019-03-23T20:17:11.664Z,13.60
2019-03-23T20:22:15.868Z,13.60
2019-03-23T20:27:20.089Z,13.40
2019-03-23T20:32:24.326Z,13.30
2019-03-23T20:37:28.590Z,13.20
2019-03-23T20:42:32.795Z,12.90
2019-03-23T20:47:39.237Z,12.80
2019-03-23T20:52:46.229Z,12.80
2019-03-23T20:57:50.441Z,12.40
2019-03-23T21:02:54.838Z,12.10
2019-03-23T21:07:59.338Z,11.90
2019-03-23T21:13:03.973Z,11.80
2019-03-23T21:18:08.174Z,11.80
2019-03-23T21:23:12.378Z,11.60
2019-03-23T21:28:16.594Z,11.60
2019-03-23T21:33:20.812Z,11.50
2019-03-23T21:38:25.459Z,11.60
2019-03-23T21:43:30.004Z,11.60
2019-03-23T21:48:34.259Z,11.60
2019-03-23T21:53:38.874Z,11.70
2019-03-23T21:58:43.425Z,11.80
2019-03-23T22:03:47.650Z,11.80
2019-03-23T22:08:51.865Z,12.00
2019-03-23T22:13:56.087Z,12.10
2019-03-23T22:19:01.007Z,12.00
2019-03-23T22:24:05.259Z,11.80
2019-03-23T22:29:09.479Z,11.90
2019-03-23T22:34:13.681Z,11.80
2019-03-23T22:39:18.140Z,11.80
2019-03-23T22:44:22.363Z,11.70
2019-03-23T22:49:26.573Z,11.80
2019-03-23T22:54:30.794Z,11.60
2019-03-23T22:59:35.598Z,11.30
2019-03-23T23:04:40.181Z,11.50
2019-03-23T23:09:44.398Z,11.50
2019-03-23T23:14:48.625Z,11.50
2019-03-23T23:19:52.857Z,11.40
2019-03-23T23:24:57.383Z,11.50
2019-03-23T23:30:01.644Z,11.30
2019-03-23T23:35:06.464Z,11.20
2019-03-23T23:40:11.105Z,11.30
2019-03-23T23:45:16.052Z,11.10
2019-03-23T23:50:20.341Z,10.90
2019-03-23T23:55:24.560Z,11.00
